sensor_id;sensor_type;location;lat;lon;timestamp;pressure;altitude;pressure_sealevel;temperature;humidity
74778;BME280;63298;53.164;8.610;2024-03-08T00:42:03;102456.75;;;3.31;71.44
74778;BME280;63298;53.164;8.610;2024-03-08T00:44:32;102454.19;;;3.29;71.39
74778;BME280;63298;53.164;8.610;2024-03-08T00:47:11;102474.13;;;3.39;71.46
74778;BME280;63298;53.164;8.610;2024-03-08T00:49:41;102446.63;;;3.23;71.41
74778;BME280;63298;53.164;8.610;2024-03-08T00:58:39;102445.03;;;3.21;71.66
74778;BME280;63298;53.164;8.610;2024-03-08T01:01:32;102460.09;;;3.25;71.68
74778;BME280;63298;53.164;8.610;2024-03-08T01:06:41;102439.19;;;3.16;71.39
74778;BME280;63298;53.164;8.610;2024-03-08T01:16:27;102419.13;;;3.07;71.52
74778;BME280;63298;53.164;8.610;2024-03-08T01:19:06;102419.13;;;3.07;71.46
74778;BME280;63298;53.164;8.610;2024-03-08T01:22:10;102428.72;;;3.11;71.47
74778;BME280;63298;53.164;8.610;2024-03-08T01:25:03;102403.53;;;2.99;71.40
74778;BME280;63298;53.164;8.610;2024-03-08T01:31:34;102406.50;;;3.06;71.82
74778;BME280;63298;53.164;8.610;2024-03-08T01:38:36;102389.06;;;2.89;71.47
74778;BME280;63298;53.164;8.610;2024-03-08T01:41:28;102389.94;;;2.90;71.50
74778;BME280;63298;53.164;8.610;2024-03-08T01:44:30;102379.06;;;2.80;71.85
74778;BME280;63298;53.164;8.610;2024-03-08T01:50:42;102366.03;;;2.74;72.08
74778;BME280;63298;53.164;8.610;2024-03-08T01:56:56;102378.66;;;2.75;71.86
74778;BME280;63298;53.164;8.610;2024-03-08T02:03:24;102368.63;;;2.76;71.46
74778;BME280;63298;53.164;8.610;2024-03-08T02:16:51;102372.38;;;2.65;72.26
74778;BME280;63298;53.164;8.610;2024-03-08T02:26:58;102353.94;;;2.49;72.80
74778;BME280;63298;53.164;8.610;2024-03-08T03:40:13;102299.13;;;2.15;72.85
74778;BME280;63298;53.164;8.610;2024-03-08T04:04:38;102315.00;;;2.20;73.90
74778;BME280;63298;53.164;8.610;2024-03-08T04:07:14;102302.97;;;2.13;73.49
74778;BME280;63298;53.164;8.610;2024-03-08T04:13:14;102298.41;;;2.13;73.39
74778;BME280;63298;53.164;8.610;2024-03-08T04:24:52;102292.53;;;2.08;73.30
74778;BME280;63298;53.164;8.610;2024-03-08T04:27:28;102296.13;;;2.09;73.61
74778;BME280;63298;53.164;8.610;2024-03-08T04:29:53;102279.13;;;1.97;73.63
74778;BME280;63298;53.164;8.610;2024-03-08T04:32:22;102290.25;;;2.04;73.68
74778;BME280;63298;53.164;8.610;2024-03-08T04:35:16;102286.41;;;1.97;73.41
74778;BME280;63298;53.164;8.610;2024-03-08T04:37:47;102281.81;;;1.88;74.63
74778;BME280;63298;53.164;8.610;2024-03-08T04:40:18;102283.72;;;1.87;74.83
74778;BME280;63298;53.164;8.610;2024-03-08T04:42:50;102275.69;;;1.86;73.99
74778;BME280;63298;53.164;8.610;2024-03-08T04:51:59;102282.69;;;1.88;74.05
74778;BME280;63298;53.164;8.610;2024-03-08T04:57:14;102283.00;;;1.85;74.08
74778;BME280;63298;53.164;8.610;2024-03-08T05:00:40;102279.53;;;1.93;73.96
74778;BME280;63298;53.164;8.610;2024-03-08T05:03:17;102282.69;;;1.88;74.32
74778;BME280;63298;53.164;8.610;2024-03-08T05:05:58;102276.69;;;1.85;74.06
74778;BME280;63298;53.164;8.610;2024-03-08T05:08:31;102281.69;;;1.89;74.27
74778;BME280;63298;53.164;8.610;2024-03-08T05:10:57;102263.81;;;1.77;74.33
74778;BME280;63298;53.164;8.610;2024-03-08T05:13:22;102267.97;;;1.81;74.99
74778;BME280;63298;53.164;8.610;2024-03-08T05:15:54;102257.22;;;1.80;74.24
74778;BME280;63298;53.164;8.610;2024-03-08T05:18:30;102247.06;;;1.72;74.53
74778;BME280;63298;53.164;8.610;2024-03-08T05:21:06;102258.09;;;1.80;74.43
74778;BME280;63298;53.164;8.610;2024-03-08T05:23:40;102251.78;;;1.70;74.69
74778;BME280;63298;53.164;8.610;2024-03-08T05:26:06;102249.94;;;1.70;75.10
74778;BME280;63298;53.164;8.610;2024-03-08T05:28:31;102256.94;;;1.73;74.76
74778;BME280;63298;53.164;8.610;2024-03-08T05:31:00;102235.91;;;1.65;74.85
74778;BME280;63298;53.164;8.610;2024-03-08T05:33:25;102242.66;;;1.61;74.50
74778;BME280;63298;53.164;8.610;2024-03-08T05:39:13;102257.09;;;1.71;74.67
74778;BME280;63298;53.164;8.610;2024-03-08T05:41:49;102246.47;;;1.68;74.88
74778;BME280;63298;53.164;8.610;2024-03-08T05:44:17;102246.78;;;1.75;74.52
74778;BME280;63298;53.164;8.610;2024-03-08T05:46:45;102248.78;;;1.73;74.89
74778;BME280;63298;53.164;8.610;2024-03-08T05:49:16;102245.22;;;1.72;75.07
74778;BME280;63298;53.164;8.610;2024-03-08T05:51:44;102242.50;;;1.72;74.65
74778;BME280;63298;53.164;8.610;2024-03-08T05:54:12;102242.78;;;1.69;74.65
74778;BME280;63298;53.164;8.610;2024-03-08T05:56:40;102232.34;;;1.65;74.91
74778;BME280;63298;53.164;8.610;2024-03-08T05:59:16;102243.31;;;1.73;74.56
74778;BME280;63298;53.164;8.610;2024-03-08T06:01:44;102230.47;;;1.65;74.55
74778;BME280;63298;53.164;8.610;2024-03-08T06:04:18;102227.44;;;1.68;74.44
74778;BME280;63298;53.164;8.610;2024-03-08T06:06:47;102221.03;;;1.60;74.77
74778;BME280;63298;53.164;8.610;2024-03-08T06:09:30;102228.19;;;1.61;74.95
74778;BME280;63298;53.164;8.610;2024-03-08T06:12:28;102227.75;;;1.56;75.15
74778;BME280;63298;53.164;8.610;2024-03-08T06:15:29;102238.75;;;1.64;75.17
74778;BME280;63298;53.164;8.610;2024-03-08T06:17:58;102229.91;;;1.62;75.02
74778;BME280;63298;53.164;8.610;2024-03-08T06:20:27;102209.16;;;1.51;74.95
74778;BME280;63298;53.164;8.610;2024-03-08T06:26:24;102217.44;;;1.59;74.96
74778;BME280;63298;53.164;8.610;2024-03-08T06:28:56;102225.16;;;1.64;74.82
74778;BME280;63298;53.164;8.610;2024-03-08T06:31:48;102206.00;;;1.56;75.13
74778;BME280;63298;53.164;8.610;2024-03-08T06:34:41;102200.28;;;1.59;74.88
74778;BME280;63298;53.164;8.610;2024-03-08T06:37:16;102200.28;;;1.59;75.12
74778;BME280;63298;53.164;8.610;2024-03-08T06:46:00;102202.69;;;1.71;74.55
74778;BME280;63298;53.164;8.610;2024-03-08T07:18:48;102215.69;;;1.97;74.84
74778;BME280;63298;53.164;8.610;2024-03-08T07:21:17;102224.81;;;2.05;74.22
74778;BME280;63298;53.164;8.610;2024-03-08T07:23:43;102220.91;;;2.08;74.06
74778;BME280;63298;53.164;8.610;2024-03-08T07:26:09;102220.47;;;2.12;74.49
74778;BME280;63298;53.164;8.610;2024-03-08T07:28:35;102211.72;;;2.18;73.57
74778;BME280;63298;53.164;8.610;2024-03-08T07:31:10;102211.03;;;2.16;74.02
74778;BME280;63298;53.164;8.610;2024-03-08T07:33:36;102201.56;;;2.21;73.91
74778;BME280;63298;53.164;8.610;2024-03-08T07:36:02;102208.72;;;2.22;73.89
74778;BME280;63298;53.164;8.610;2024-03-08T07:38:31;102210.13;;;2.26;74.11
74778;BME280;63298;53.164;8.610;2024-03-08T07:40:56;102198.06;;;2.28;73.40
74778;BME280;63298;53.164;8.610;2024-03-08T07:43:24;102205.78;;;2.33;74.00
74778;BME280;63298;53.164;8.610;2024-03-08T07:45:53;102211.22;;;2.33;73.29
74778;BME280;63298;53.164;8.610;2024-03-08T07:48:24;102197.44;;;2.44;73.49
74778;BME280;63298;53.164;8.610;2024-03-08T07:50:56;102199.16;;;2.45;73.30
74778;BME280;63298;53.164;8.610;2024-03-08T07:53:23;102201.97;;;2.53;73.32
74778;BME280;63298;53.164;8.610;2024-03-08T07:55:52;102204.88;;;2.51;73.34
74778;BME280;63298;53.164;8.610;2024-03-08T07:58:18;102214.84;;;2.60;73.14
74778;BME280;63298;53.164;8.610;2024-03-08T08:00:43;102197.47;;;2.61;72.83
74778;BME280;63298;53.164;8.610;2024-03-08T08:03:09;102201.16;;;2.70;72.83
74778;BME280;63298;53.164;8.610;2024-03-08T08:05:38;102199.00;;;2.74;73.16
74778;BME280;63298;53.164;8.610;2024-03-08T08:08:13;102198.06;;;2.83;72.78
74778;BME280;63298;53.164;8.610;2024-03-08T08:10:48;102202.31;;;2.95;72.69
74778;BME280;63298;53.164;8.610;2024-03-08T08:13:16;102190.94;;;2.99;72.71
74778;BME280;63298;53.164;8.610;2024-03-08T08:15:44;102200.91;;;3.09;72.69
74778;BME280;63298;53.164;8.610;2024-03-08T08:18:16;102200.44;;;3.13;71.99
74778;BME280;63298;53.164;8.610;2024-03-08T08:20:44;102194.50;;;3.18;71.86
74778;BME280;63298;53.164;8.610;2024-03-08T08:23:10;102202.31;;;3.30;71.60
74778;BME280;63298;53.164;8.610;2024-03-08T08:25:38;102199.81;;;3.37;71.89
74778;BME280;63298;53.164;8.610;2024-03-08T08:28:10;102209.22;;;3.42;71.48
74778;BME280;63298;53.164;8.610;2024-03-08T08:30:38;102198.38;;;3.51;71.61
74778;BME280;63298;53.164;8.610;2024-03-08T08:33:04;102198.47;;;3.59;71.14
74778;BME280;63298;53.164;8.610;2024-03-08T08:35:35;102187.84;;;3.56;71.47
74778;BME280;63298;53.164;8.610;2024-03-08T08:38:04;102177.88;;;3.64;71.10
74778;BME280;63298;53.164;8.610;2024-03-08T08:40:40;102196.50;;;3.69;70.75
74778;BME280;63298;53.164;8.610;2024-03-08T08:43:08;102186.75;;;3.66;70.88
74778;BME280;63298;53.164;8.610;2024-03-08T08:45:34;102187.38;;;3.78;70.91
74778;BME280;63298;53.164;8.610;2024-03-08T08:47:59;102175.09;;;3.82;70.87
74778;BME280;63298;53.164;8.610;2024-03-08T08:50:25;102182.88;;;3.95;70.96
74778;BME280;63298;53.164;8.610;2024-03-08T08:52:55;102164.31;;;3.98;70.22
74778;BME280;63298;53.164;8.610;2024-03-08T08:55:33;102173.72;;;4.04;69.76
74778;BME280;63298;53.164;8.610;2024-03-08T08:58:00;102171.88;;;4.12;70.16
74778;BME280;63298;53.164;8.610;2024-03-08T09:00:44;102165.28;;;4.23;69.76
74778;BME280;63298;53.164;8.610;2024-03-08T09:03:33;102155.75;;;4.27;68.73
74778;BME280;63298;53.164;8.610;2024-03-08T09:06:01;102155.63;;;4.37;69.57
74778;BME280;63298;53.164;8.610;2024-03-08T09:08:29;102141.97;;;4.45;69.50
74778;BME280;63298;53.164;8.610;2024-03-08T09:11:05;102159.78;;;4.57;69.44
74778;BME280;63298;53.164;8.610;2024-03-08T09:13:34;102151.63;;;4.65;68.87
74778;BME280;63298;53.164;8.610;2024-03-08T09:16:00;102148.56;;;4.68;67.78
74778;BME280;63298;53.164;8.610;2024-03-08T09:18:28;102146.34;;;4.71;68.94
74778;BME280;63298;53.164;8.610;2024-03-08T09:20:54;102144.97;;;4.75;68.53
74778;BME280;63298;53.164;8.610;2024-03-08T09:23:23;102138.16;;;4.79;68.62
74778;BME280;63298;53.164;8.610;2024-03-08T09:25:49;102145.34;;;4.89;67.75
74778;BME280;63298;53.164;8.610;2024-03-08T09:28:17;102132.88;;;4.94;67.59
74778;BME280;63298;53.164;8.610;2024-03-08T09:30:42;102130.00;;;4.96;67.33
74778;BME280;63298;53.164;8.610;2024-03-08T09:33:08;102131.03;;;5.03;68.05
74778;BME280;63298;53.164;8.610;2024-03-08T09:35:34;102128.47;;;5.09;68.29
74778;BME280;63298;53.164;8.610;2024-03-08T09:38:02;102117.69;;;5.24;68.28
74778;BME280;63298;53.164;8.610;2024-03-08T09:40:28;102119.75;;;5.30;66.56
74778;BME280;63298;53.164;8.610;2024-03-08T09:45:57;102102.47;;;5.46;66.43
74778;BME280;63298;53.164;8.610;2024-03-08T09:48:38;102099.06;;;5.44;66.29
74778;BME280;63298;53.164;8.610;2024-03-08T09:51:04;102107.59;;;5.49;66.01
74778;BME280;63298;53.164;8.610;2024-03-08T09:53:30;102095.47;;;5.51;66.29
74778;BME280;63298;53.164;8.610;2024-03-08T09:56:16;102089.31;;;5.57;67.32
74778;BME280;63298;53.164;8.610;2024-03-08T09:58:45;102089.63;;;5.71;66.43
74778;BME280;63298;53.164;8.610;2024-03-08T10:01:10;102079.66;;;5.78;66.60
74778;BME280;63298;53.164;8.610;2024-03-08T10:03:46;102074.72;;;5.81;65.96
74778;BME280;63298;53.164;8.610;2024-03-08T10:06:12;102078.09;;;5.83;66.19
74778;BME280;63298;53.164;8.610;2024-03-08T10:08:37;102064.25;;;5.85;65.30
74778;BME280;63298;53.164;8.610;2024-03-08T10:11:04;102061.16;;;5.96;65.93
74778;BME280;63298;53.164;8.610;2024-03-08T10:13:42;102070.56;;;6.01;66.00
74778;BME280;63298;53.164;8.610;2024-03-08T10:16:10;102060.59;;;6.08;65.83
74778;BME280;63298;53.164;8.610;2024-03-08T10:18:42;102057.50;;;6.12;65.31
74778;BME280;63298;53.164;8.610;2024-03-08T10:21:13;102048.38;;;6.19;64.69
74778;BME280;63298;53.164;8.610;2024-03-08T10:23:41;102033.47;;;6.22;65.06
74778;BME280;63298;53.164;8.610;2024-03-08T10:29:40;102030.47;;;6.39;64.43
74778;BME280;63298;53.164;8.610;2024-03-08T10:32:17;102033.47;;;6.53;64.35
74778;BME280;63298;53.164;8.610;2024-03-08T10:34:51;102022.47;;;6.61;62.09
74778;BME280;63298;53.164;8.610;2024-03-08T10:37:22;102017.94;;;6.68;62.94
74778;BME280;63298;53.164;8.610;2024-03-08T10:43:25;102006.28;;;6.88;62.98
74778;BME280;63298;53.164;8.610;2024-03-08T10:46:34;102010.03;;;6.96;63.53
74778;BME280;63298;53.164;8.610;2024-03-08T10:49:07;102006.63;;;7.08;62.06
74778;BME280;63298;53.164;8.610;2024-03-08T10:51:57;101996.56;;;7.01;59.04
74778;BME280;63298;53.164;8.610;2024-03-08T10:57:12;101992.94;;;7.23;62.28
74778;BME280;63298;53.164;8.610;2024-03-08T10:59:47;101993.69;;;7.31;62.50
74778;BME280;63298;53.164;8.610;2024-03-08T11:02:16;101981.41;;;7.42;62.42
74778;BME280;63298;53.164;8.610;2024-03-08T11:04:50;101987.00;;;7.49;61.55
74778;BME280;63298;53.164;8.610;2024-03-08T11:07:37;101979.13;;;7.60;61.95
74778;BME280;63298;53.164;8.610;2024-03-08T11:10:30;101975.19;;;7.63;61.23
74778;BME280;63298;53.164;8.610;2024-03-08T11:28:17;101952.78;;;7.95;60.53
74778;BME280;63298;53.164;8.610;2024-03-08T11:31:21;101938.44;;;8.00;59.72
74778;BME280;63298;53.164;8.610;2024-03-08T11:33:41;101948.31;;;8.09;58.53
74778;BME280;63298;53.164;8.610;2024-03-08T11:36:27;101934.94;;;8.06;58.76
74778;BME280;63298;53.164;8.610;2024-03-08T11:39:01;101921.66;;;8.09;59.49
74778;BME280;63298;53.164;8.610;2024-03-08T11:41:34;101932.47;;;8.11;58.69
74778;BME280;63298;53.164;8.610;2024-03-08T11:44:05;101927.16;;;8.09;58.54
74778;BME280;63298;53.164;8.610;2024-03-08T11:47:08;101918.22;;;8.22;59.51
74778;BME280;63298;53.164;8.610;2024-03-08T11:49:37;101921.72;;;8.31;59.38
74778;BME280;63298;53.164;8.610;2024-03-08T11:52:05;101924.09;;;8.34;58.36
74778;BME280;63298;53.164;8.610;2024-03-08T11:54:31;101912.13;;;8.27;57.50
74778;BME280;63298;53.164;8.610;2024-03-08T11:57:35;101904.56;;;8.29;57.76
74778;BME280;63298;53.164;8.610;2024-03-08T12:00:05;101894.22;;;8.31;57.65
74778;BME280;63298;53.164;8.610;2024-03-08T12:02:30;101899.22;;;8.42;57.92
74778;BME280;63298;53.164;8.610;2024-03-08T12:05:04;101897.16;;;8.50;59.06
74778;BME280;63298;53.164;8.610;2024-03-08T12:07:35;101887.81;;;8.45;57.84
74778;BME280;63298;53.164;8.610;2024-03-08T12:10:20;101886.34;;;8.49;57.78
74778;BME280;63298;53.164;8.610;2024-03-08T12:12:58;101891.66;;;8.50;57.61
74778;BME280;63298;53.164;8.610;2024-03-08T12:15:33;101881.13;;;8.54;58.13
74778;BME280;63298;53.164;8.610;2024-03-08T12:21:09;101855.22;;;8.70;56.99
74778;BME280;63298;53.164;8.610;2024-03-08T12:23:38;101852.38;;;8.84;59.16
74778;BME280;63298;53.164;8.610;2024-03-08T12:26:49;101852.88;;;8.94;56.24
74778;BME280;63298;53.164;8.610;2024-03-08T12:29:38;101837.81;;;8.90;57.25
74778;BME280;63298;53.164;8.610;2024-03-08T12:32:30;101834.22;;;8.90;55.85
74778;BME280;63298;53.164;8.610;2024-03-08T12:35:25;101838.25;;;8.94;55.91
74778;BME280;63298;53.164;8.610;2024-03-08T12:38:14;101840.00;;;9.01;56.98
74778;BME280;63298;53.164;8.610;2024-03-08T12:40:49;101826.25;;;9.01;56.62
74778;BME280;63298;53.164;8.610;2024-03-08T12:43:17;101819.09;;;9.07;56.74
74778;BME280;63298;53.164;8.610;2024-03-08T12:45:42;101815.50;;;9.13;56.08
74778;BME280;63298;53.164;8.610;2024-03-08T12:48:13;101814.69;;;9.13;55.19
74778;BME280;63298;53.164;8.610;2024-03-08T12:51:11;101812.13;;;9.11;54.99
74778;BME280;63298;53.164;8.610;2024-03-08T12:53:49;101800.06;;;9.19;55.77
74778;BME280;63298;53.164;8.610;2024-03-08T12:56:37;101788.69;;;9.22;55.21
74778;BME280;63298;53.164;8.610;2024-03-08T12:59:04;101793.13;;;9.29;55.29
74778;BME280;63298;53.164;8.610;2024-03-08T13:01:41;101793.19;;;9.42;56.25
74778;BME280;63298;53.164;8.610;2024-03-08T13:04:17;101772.69;;;9.51;55.40
74778;BME280;63298;53.164;8.610;2024-03-08T13:06:52;101775.03;;;9.54;55.84
74778;BME280;63298;53.164;8.610;2024-03-08T13:09:20;101778.84;;;9.60;55.38
74778;BME280;63298;53.164;8.610;2024-03-08T13:11:49;101761.91;;;9.63;56.03
74778;BME280;63298;53.164;8.610;2024-03-08T13:14:15;101768.50;;;9.75;55.38
74778;BME280;63298;53.164;8.610;2024-03-08T13:16:48;101761.28;;;9.74;53.65
74778;BME280;63298;53.164;8.610;2024-03-08T13:19:33;101753.69;;;9.76;52.96
74778;BME280;63298;53.164;8.610;2024-03-08T13:22:22;101750.91;;;9.83;54.00
74778;BME280;63298;53.164;8.610;2024-03-08T13:25:14;101752.41;;;9.85;53.94
74778;BME280;63298;53.164;8.610;2024-03-08T13:27:49;101751.56;;;9.85;53.87
74778;BME280;63298;53.164;8.610;2024-03-08T13:30:22;101744.16;;;9.85;54.39
74778;BME280;63298;53.164;8.610;2024-03-08T13:33:18;101731.00;;;9.87;51.35
74778;BME280;63298;53.164;8.610;2024-03-08T13:35:58;101715.75;;;9.91;54.18
74778;BME280;63298;53.164;8.610;2024-03-08T13:38:24;101712.16;;;9.91;53.54
74778;BME280;63298;53.164;8.610;2024-03-08T13:40:52;101701.75;;;9.86;52.98
74778;BME280;63298;53.164;8.610;2024-03-08T13:43:18;101712.56;;;9.94;53.84
74778;BME280;63298;53.164;8.610;2024-03-08T13:49:14;101701.31;;;10.03;53.50
74778;BME280;63298;53.164;8.610;2024-03-08T13:58:28;101676.31;;;10.17;54.12
74778;BME280;63298;53.164;8.610;2024-03-08T14:07:56;101668.69;;;10.19;53.25
74778;BME280;63298;53.164;8.610;2024-03-08T14:34:03;101622.38;;;10.41;53.53
74778;BME280;63298;53.164;8.610;2024-03-08T16:37:00;101471.25;;;9.21;55.03
74778;BME280;63298;53.164;8.610;2024-03-08T16:39:26;101477.19;;;9.12;54.35
74778;BME280;63298;53.164;8.610;2024-03-08T16:41:51;101482.03;;;9.09;54.68
74778;BME280;63298;53.164;8.610;2024-03-08T16:44:17;101477.81;;;9.07;55.60
74778;BME280;63298;53.164;8.610;2024-03-08T16:46:42;101478.84;;;8.99;54.95
74778;BME280;63298;53.164;8.610;2024-03-08T16:49:08;101489.00;;;8.99;55.18
74778;BME280;63298;53.164;8.610;2024-03-08T16:51:34;101482.22;;;8.88;55.74
74778;BME280;63298;53.164;8.610;2024-03-08T22:29:08;101284.53;;;5.38;61.04
74778;BME280;63298;53.164;8.610;2024-03-08T22:31:34;101282.81;;;5.37;60.78
74778;BME280;63298;53.164;8.610;2024-03-08T22:34:00;101287.03;;;5.39;60.45
74778;BME280;63298;53.164;8.610;2024-03-08T22:36:26;101281.13;;;5.36;61.18
74778;BME280;63298;53.164;8.610;2024-03-08T22:38:54;101278.81;;;5.39;61.04
74778;BME280;63298;53.164;8.610;2024-03-08T22:41:24;101277.91;;;5.32;60.95
74778;BME280;63298;53.164;8.610;2024-03-08T22:47:34;101268.09;;;5.23;61.17
74778;BME280;63298;53.164;8.610;2024-03-08T22:50:03;101277.44;;;5.29;60.56
74778;BME280;63298;53.164;8.610;2024-03-08T22:52:31;101279.31;;;5.28;61.22
74778;BME280;63298;53.164;8.610;2024-03-08T22:54:57;101260.97;;;5.22;60.94
74778;BME280;63298;53.164;8.610;2024-03-08T22:57:38;101267.47;;;5.21;60.79
74778;BME280;63298;53.164;8.610;2024-03-08T23:00:08;101278.81;;;5.18;61.60
74778;BME280;63298;53.164;8.610;2024-03-08T23:02:36;101273.34;;;5.18;62.41
74778;BME280;63298;53.164;8.610;2024-03-08T23:05:01;101252.66;;;5.15;61.55
74778;BME280;63298;53.164;8.610;2024-03-08T23:07:27;101251.72;;;5.08;61.78
74778;BME280;63298;53.164;8.610;2024-03-08T23:10:14;101258.53;;;5.12;62.47
74778;BME280;63298;53.164;8.610;2024-03-08T23:12:49;101262.75;;;5.15;62.09
74778;BME280;63298;53.164;8.610;2024-03-08T23:15:15;101259.00;;;5.16;62.32
74778;BME280;63298;53.164;8.610;2024-03-08T23:20:07;101261.72;;;5.16;61.69
74778;BME280;63298;53.164;8.610;2024-03-08T23:22:38;101257.28;;;5.15;61.74
74778;BME280;63298;53.164;8.610;2024-03-08T23:25:15;101261.84;;;5.08;62.93
74778;BME280;63298;53.164;8.610;2024-03-08T23:27:57;101245.63;;;5.06;62.75
74778;BME280;63298;53.164;8.610;2024-03-08T23:30:28;101255.97;;;5.11;61.93
74778;BME280;63298;53.164;8.610;2024-03-08T23:32:54;101256.16;;;5.09;62.18
74778;BME280;63298;53.164;8.610;2024-03-08T23:35:21;101264.38;;;5.09;61.63
74778;BME280;63298;53.164;8.610;2024-03-08T23:37:49;101257.19;;;5.08;62.12
74778;BME280;63298;53.164;8.610;2024-03-08T23:40:16;101258.44;;;5.06;62.30
74778;BME280;63298;53.164;8.610;2024-03-08T23:42:43;101253.16;;;5.04;62.40
74778;BME280;63298;53.164;8.610;2024-03-08T23:45:08;101260.31;;;5.05;61.98
74778;BME280;63298;53.164;8.610;2024-03-08T23:47:34;101257.59;;;5.05;61.73
74778;BME280;63298;53.164;8.610;2024-03-08T23:50:00;101259.28;;;5.06;62.40
74778;BME280;63298;53.164;8.610;2024-03-08T23:52:25;101247.06;;;5.02;62.78
74778;BME280;63298;53.164;8.610;2024-03-08T23:54:51;101255.03;;;5.04;62.63
74778;BME280;63298;53.164;8.610;2024-03-08T23:57:28;101242.63;;;5.01;62.29
74778;BME280;63298;53.164;8.610;2024-03-08T23:59:56;101238.75;;;4.96;62.22
